Terminal Aerodrome Forecast
Issued by NWS

Home | Current Version | Previous Version | Text Only | Print | Product List | Glossary On
Versions: 1 2 3 4 5 6 7 8 9 10 11 12
396
FTUS43 KPAH 131720
TAFCGI
TAF
KCGI 131720Z 1318/1418 22019G30KT P6SM SCT250
     FM132200 25010KT P6SM SKC
     FM140200 31009KT P6SM FEW040
     FM140800 34007KT P6SM SCT040 BKN250=

USA.gov is the U.S. government's official web portal to all federal, state and local government web resources and services.